| time (UTC) | temp F | wind direction | speed MPH | gust MPH | rain 1hr in | rain 24hr in | rain mn in | humidity % | barometer mb |
| 20260509220958 | 53 | 241 | 0.0 | 0.0 | 0.03 | 0.12 | 0.12 | 94 | 1012.0 |
| 20260509215958 | 53 | 241 | 0.0 | 3.0 | 0.02 | 0.11 | 0.11 | 94 | 1012.1 |
| 20260509215458 | 53 | 241 | 2.0 | 3.0 | 0.01 | 0.10 | 0.10 | 94 | 1012.1 |
| 20260509214958 | 54 | 241 | 2.0 | 3.0 | 0.01 | 0.10 | 0.10 | 94 | 1012.1 |
| 20260509214458 | 54 | 241 | 2.0 | 4.0 | 0.00 | 0.09 | 0.09 | 94 | 1012.1 |
| 20260509213958 | 54 | 240 | 3.0 | 4.0 | 0.00 | 0.09 | 0.09 | 94 | 1012.1 |
| 20260509213458 | 54 | 239 | 2.0 | 4.0 | 0.00 | 0.09 | 0.09 | 94 | 1012.1 |
| 20260509212958 | 54 | 241 | 3.0 | 4.0 | 0.01 | 0.09 | 0.09 | 94 | 1012.1 |
| 20260509212458 | 54 | 245 | 2.0 | 4.0 | 0.01 | 0.09 | 0.09 | 94 | 1012.1 |
| 20260509211458 | 54 | 250 | 2.0 | 4.0 | 0.01 | 0.09 | 0.09 | 94 | 1012.0 |
| 20260509210958 | 54 | 249 | 2.0 | 4.0 | 0.01 | 0.09 | 0.09 | 94 | 1012.0 |
| 20260509210458 | 54 | 244 | 2.0 | 7.0 | 0.01 | 0.09 | 0.09 | 94 | 1011.9 |
| 20260509210000 | 54 | 244 | 4.0 | 7.0 | 0.01 | 0.09 | 0.09 | 94 | 1012.0 |
| 20260509205458 | 54 | 252 | 5.0 | 5.0 | 0.01 | 0.09 | 0.09 | 94 | 1012.0 |
| 20260509203958 | 54 | 84 | 0.0 | 0.0 | 0.02 | 0.09 | 0.09 | 94 | 1011.4 |
| 20260509203458 | 54 | 84 | 0.0 | 3.0 | 0.02 | 0.09 | 0.09 | 94 | 1011.3 |
| 20260509202958 | 54 | 84 | 0.0 | 4.0 | 0.01 | 0.08 | 0.08 | 94 | 1011.1 |
| 20260509202457 | 54 | 254 | 1.0 | 4.0 | 0.01 | 0.08 | 0.08 | 94 | 1011.9 |
| 20260509201958 | 54 | 255 | 3.0 | 4.0 | 0.01 | 0.08 | 0.08 | 94 | 1011.9 |
| 20260509201458 | 54 | 236 | 2.0 | 6.0 | 0.01 | 0.08 | 0.08 | 93 | 1011.9 |
| 20260509200959 | 54 | 227 | 2.0 | 6.0 | 0.02 | 0.08 | 0.08 | 93 | 1012.2 |
| 20260509200457 | 54 | 253 | 2.0 | 5.0 | 0.02 | 0.08 | 0.08 | 93 | 1012.1 |
| 20260509200001 | 54 | 234 | 3.0 | 5.0 | 0.02 | 0.08 | 0.08 | 93 | 1012.1 |
| 20260509195459 | 54 | 242 | 2.0 | 5.0 | 0.03 | 0.08 | 0.08 | 93 | 1012.1 |
| 20260509194459 | 54 | 251 | 3.0 | 9.0 | 0.03 | 0.07 | 0.07 | 93 | 1012.1 |
| 20260509193959 | 54 | 244 | 5.0 | 9.0 | 0.03 | 0.07 | 0.07 | 93 | 1012.1 |
| 20260509193459 | 54 | 234 | 4.0 | 7.0 | 0.04 | 0.07 | 0.07 | 93 | 1012.1 |
| 20260509192959 | 55 | 229 | 3.0 | 5.0 | 0.05 | 0.07 | 0.07 | 93 | 1012.1 |
| 20260509192459 | 55 | 240 | 3.0 | 5.0 | 0.06 | 0.07 | 0.07 | 93 | 1011.9 |
| 20260509191959 | 55 | 231 | 5.0 | 5.0 | 0.07 | 0.07 | 0.07 | 93 | 1011.9 |
| 20260509191459 | 55 | 227 | 3.0 | 4.0 | 0.07 | 0.07 | 0.07 | 93 | 1011.6 |
| 20260509190459 | 55 | 195 | 2.0 | 2.0 | 0.06 | 0.06 | 0.06 | 92 | 1011.6 |
| 20260509185958 | 55 | 156 | 0.0 | 0.0 | 0.06 | 0.06 | 0.06 | 92 | 1011.6 |
| 20260509184958 | 55 | 225 | 0.0 | 3.0 | 0.05 | 0.05 | 0.05 | 91 | 1011.6 |
| 20260509184458 | 55 | 225 | 0.0 | 3.0 | 0.04 | 0.04 | 0.04 | 91 | 1011.7 |
| 20260509183958 | 55 | 225 | 2.0 | 3.0 | 0.04 | 0.04 | 0.04 | 90 | 1011.8 |
| 20260509182958 | 56 | 211 | 1.0 | 2.0 | 0.02 | 0.02 | 0.02 | 88 | 1012.0 |
| 20260509182457 | 56 | 84 | 0.0 | 0.0 | 0.01 | 0.01 | 0.01 | 86 | 1011.9 |
| 20260509181458 | 57 | 84 | 0.0 | 0.0 | 0.00 | 0.00 | 0.00 | 84 | 1011.7 |
| 20260509180958 | 57 | 84 | 0.0 | 0.0 | 0.00 | 0.00 | 0.00 | 82 | 1011.8 |
| 20260509175959 | 58 | 84 | 0.0 | 2.0 | 0.00 | 0.00 | 0.00 | 81 | 1011.5 |
| 20260509175458 | 58 | 84 | 0.0 | 1.0 | 0.00 | 0.00 | 0.00 | 80 | 1011.5 |
| 20260509174957 | 58 | 84 | 0.0 | 4.0 | 0.00 | 0.00 | 0.00 | 78 | 1011.5 |
| 20260509174458 | 59 | 84 | 0.0 | 4.0 | 0.00 | 0.00 | 0.00 | 81 | 1011.5 |
| 20260509173958 | 59 | 72 | 2.0 | 3.0 | 0.00 | 0.00 | 0.00 | 79 | 1011.6 |
| 20260509173459 | 59 | 200 | 0.0 | 2.0 | 0.00 | 0.00 | 0.00 | 77 | 1011.7 |
| 20260509172958 | 59 | 198 | 0.0 | 2.0 | 0.00 | 0.00 | 0.00 | 78 | 1011.6 |
| 20260509172458 | 59 | 196 | 0.0 | 4.0 | 0.00 | 0.00 | 0.00 | 80 | 1011.8 |
| 20260509171458 | 59 | 36 | 1.0 | 4.0 | 0.00 | 0.00 | 0.00 | 78 | 1011.9 |
| 20260509170458 | 59 | 238 | 0.0 | 2.0 | 0.00 | 0.00 | 0.00 | 79 | 1012.0 |
| 20260509170001 | 59 | 238 | 0.0 | 3.0 | 0.00 | 0.00 | 0.00 | 77 | 1012.2 |
| 20260509165458 | 59 | 238 | 2.0 | 3.0 | 0.00 | 0.00 | 0.00 | 80 | 1012.4 |
| 20260509164958 | 58 | 229 | 0.0 | 4.0 | 0.00 | 0.00 | 0.00 | 79 | 1012.5 |
| 20260509163958 | 57 | 222 | 1.0 | 3.0 | 0.00 | 0.00 | 0.00 | 79 | 1012.6 |
| 20260509163457 | 57 | 211 | 0.0 | 3.0 | 0.00 | 0.00 | 0.00 | 79 | 1012.7 |
| 20260509162458 | 57 | 117 | 0.0 | 2.0 | 0.00 | 0.00 | 0.00 | 81 | 1012.8 |
| 20260509161958 | 57 | 117 | 0.0 | 2.0 | 0.00 | 0.00 | 0.00 | 82 | 1012.8 |
| 20260509160000 | 57 | 255 | 1.0 | 4.0 | 0.00 | 0.00 | 0.00 | 80 | 1013.0 |
| 20260509154958 | 57 | 238 | 0.0 | 6.0 | 0.00 | 0.00 | 0.00 | 81 | 1012.8 |
| 20260509154458 | 57 | 242 | 2.0 | 5.0 | 0.00 | 0.00 | 0.00 | 81 | 1012.8 |
| 20260509153958 | 57 | 255 | 3.0 | 5.0 | 0.00 | 0.00 | 0.00 | 81 | 1012.9 |
| 20260509153458 | 57 | 236 | 1.0 | 5.0 | 0.00 | 0.00 | 0.00 | 80 | 1013.0 |
| 20260509152958 | 57 | 244 | 0.0 | 3.0 | 0.00 | 0.00 | 0.00 | 81 | 1013.1 |
| 20260509152457 | 57 | 241 | 0.0 | 3.0 | 0.00 | 0.00 | 0.00 | 80 | 1013.1 |
| 20260509151957 | 57 | 242 | 3.0 | 3.0 | 0.00 | 0.00 | 0.00 | 82 | 1013.2 |
| 20260509150958 | 56 | 262 | 0.0 | 2.0 | 0.00 | 0.00 | 0.00 | 83 | 1013.1 |
| 20260509150459 | 56 | 263 | 0.0 | 655.0 | 8.34 | 0.99 | 0.00 | 85 | |
| 20260509145957 | 56 | 264 | 0.0 | 3.0 | 0.00 | 0.00 | 0.00 | 84 | 1013.2 |
| 20260509144958 | 54 | 264 | 2.0 | 2.0 | 0.00 | 0.00 | 0.00 | 85 | 1013.1 |
| 20260509144458 | 54 | 123 | 2.0 | 2.0 | 0.00 | 0.00 | 0.00 | 86 | 1012.9 |
| 20260509143958 | 54 | 123 | 1.0 | 6.0 | 0.00 | 0.00 | 0.00 | 86 | 1013.0 |
| 20260509143458 | 54 | 74 | 0.0 | 6.0 | 0.00 | 0.00 | 0.00 | 86 | 1013.0 |
| 20260509142958 | 54 | 19 | 3.0 | 6.0 | 0.00 | 0.00 | 0.00 | 87 | 1013.0 |
| 20260509142458 | 53 | 105 | 3.0 | 6.0 | 0.00 | 0.00 | 0.00 | 87 | 1013.2 |
| 20260509141957 | 53 | 233 | 1.0 | 4.0 | 0.00 | 0.00 | 0.00 | 87 | 1013.4 |
| 20260509141457 | 53 | 47 | 1.0 | 4.0 | 0.00 | 0.00 | 0.00 | 89 | 1013.3 |
| 20260509140457 | 52 | 22 | 2.0 | 3.0 | 0.00 | 0.00 | 0.00 | 88 | 1013.1 |
| 20260509135959 | 52 | 63 | 1.0 | 6.0 | 0.00 | 0.00 | 0.00 | 90 | 1012.8 |
| 20260509135457 | 52 | 52 | 2.0 | 9.0 | 0.00 | 0.00 | 0.00 | 90 | 1012.7 |
| 20260509134956 | 51 | 72 | 6.0 | 9.0 | 0.00 | 0.00 | 0.00 | 90 | 1012.8 |
| 20260509134456 | 51 | 78 | 2.0 | 9.0 | 0.00 | 0.00 | 0.00 | 90 | 1012.8 |
| 20260509133956 | 51 | 50 | 5.0 | 10.0 | 0.00 | 0.00 | 0.00 | 90 | 1013.0 |
| 20260509132957 | 50 | 83 | 1.0 | 6.0 | 0.00 | 0.00 | 0.00 | 91 | 1012.9 |
| 20260509132457 | 50 | 85 | 2.0 | 10.0 | 0.00 | 0.00 | 0.00 | 91 | 1013.2 |
| 20260509130957 | 48 | 360 | 4.0 | 8.0 | 0.00 | 0.00 | 0.00 | 91 | 1013.6 |
| 20260509130456 | 48 | 78 | 4.0 | 8.0 | 0.00 | 0.00 | 0.00 | 91 | 1013.8 |
| 20260509130000 | 48 | 61 | 1.0 | 6.0 | 0.00 | 0.00 | 0.00 | 91 | 1013.8 |
| 20260509124958 | 48 | 74 | 7.0 | 8.0 | 0.00 | 0.00 | 0.00 | 91 | 1013.8 |
| 20260509124457 | 47 | 50 | 3.0 | 6.0 | 0.00 | 0.00 | 0.00 | 91 | 1013.6 |
| 20260509123958 | 47 | 60 | 4.0 | 8.0 | 0.00 | 0.00 | 0.00 | 90 | 1013.8 |
| 20260509123457 | 47 | 63 | 6.0 | 8.0 | 0.00 | 0.00 | 0.00 | 91 | 1013.8 |
| 20260509122957 | 47 | 51 | 5.0 | 9.0 | 0.00 | 0.00 | 0.00 | 90 | 1013.7 |
| 20260509122457 | 47 | 59 | 5.0 | 9.0 | 0.00 | 0.00 | 0.00 | 90 | 1013.9 |
| 20260509121957 | 47 | 44 | 4.0 | 9.0 | 0.00 | 0.00 | 0.00 | 91 | 1013.9 |
| 20260509121458 | 47 | 48 | 6.0 | 10.0 | 0.00 | 0.00 | 0.00 | 91 | 1013.8 |
| 20260509120957 | 47 | 76 | 7.0 | 10.0 | 0.00 | 0.00 | 0.00 | 91 | 1013.7 |
| 20260509120457 | 47 | 74 | 7.0 | 9.0 | 0.00 | 0.00 | 0.00 | 91 | 1013.9 |
| 20260509115959 | 47 | 77 | 5.0 | 10.0 | 0.00 | 0.00 | 0.00 | 91 | 1013.9 |
| 20260509115457 | 47 | 77 | 2.0 | 9.0 | 0.00 | 0.00 | 0.00 | 91 | 1013.9 |
| 20260509114958 | 47 | 72 | 5.0 | 9.0 | 0.00 | 0.00 | 0.00 | 91 | 1013.8 |
| 20260509114458 | 46 | 60 | 4.0 | 8.0 | 0.00 | 0.00 | 0.00 | 91 | 1014.0 |
| 20260509113958 | 46 | 57 | 4.0 | 6.0 | 0.00 | 0.00 | 0.00 | 91 | 1014.2 |
| 20260509113458 | 46 | 66 | 3.0 | 10.0 | 0.00 | 0.00 | 0.00 | 90 | 1014.0 |
| 20260509112958 | 46 | 86 | 3.0 | 10.0 | 0.00 | 0.00 | 0.00 | 90 | 1014.0 |
| 20260509111957 | 46 | 30 | 3.0 | 9.0 | 0.00 | 0.00 | 0.00 | 90 | 1013.9 |
| 20260509111458 | 46 | 92 | 4.0 | 9.0 | 0.00 | 0.00 | 0.00 | 90 | 1013.8 |
| 20260509110458 | 46 | 27 | 2.0 | 9.0 | 0.00 | 0.00 | 0.00 | 91 | 1013.9 |
| 20260509110000 | 46 | 65 | 5.0 | 9.0 | 0.00 | 0.00 | 0.00 | 91 | 1013.8 |
| 20260509105457 | 46 | 76 | 5.0 | 9.0 | 0.00 | 0.00 | 0.00 | 91 | 1013.6 |
| 20260509104458 | 46 | 74 | 8.0 | 10.0 | 0.00 | 0.00 | 0.00 | 92 | 1013.5 |
| 20260509103957 | 46 | 61 | 10.0 | 11.0 | 0.00 | 0.00 | 0.00 | 92 | 1013.5 |
| 20260509103457 | 46 | 63 | 6.0 | 11.0 | 0.00 | 0.00 | 0.00 | 92 | 1013.5 |
| 20260509102958 | 46 | 75 | 7.0 | 7.0 | 0.00 | 0.00 | 0.00 | 92 | 1013.6 |
| 20260509102458 | 46 | 67 | 4.0 | 7.0 | 0.00 | 0.00 | 0.00 | 92 | 1013.5 |
| 20260509101958 | 46 | 62 | 4.0 | 8.0 | 0.00 | 0.00 | 0.00 | 92 | 1013.5 |
| 20260509101457 | 46 | 68 | 4.0 | 8.0 | 0.00 | 0.00 | 0.00 | 92 | 1013.6 |
| 20260509100957 | 46 | 63 | 3.0 | 5.0 | 0.00 | 0.00 | 0.00 | 92 | 1013.7 |
| 20260509100459 | 46 | 57 | 3.0 | 8.0 | 0.00 | 0.00 | 0.00 | 92 | 1013.7 |
| 20260509095959 | 46 | 67 | 4.0 | 8.0 | 0.00 | 0.00 | 0.00 | 92 | 1013.5 |
| 20260509095457 | 46 | 70 | 5.0 | 8.0 | 0.00 | 0.00 | 0.00 | 92 | 1013.6 |
| 20260509094957 | 46 | 81 | 5.0 | 7.0 | 0.00 | 0.00 | 0.00 | 92 | 1013.6 |
| 20260509092456 | 46 | 72 | 5.0 | 6.0 | 0.00 | 0.00 | 0.00 | 92 | 1013.4 |
| 20260509091957 | 46 | 74 | 5.0 | 6.0 | 0.00 | 0.00 | 0.00 | 92 | 1013.6 |
| 20260509091457 | 46 | 75 | 3.0 | 6.0 | 0.00 | 0.00 | 0.00 | 92 | 1013.6 |
| 20260509090957 | 46 | 73 | 4.0 | 6.0 | 0.00 | 0.00 | 0.00 | 91 | 1013.7 |
| 20260509090457 | 46 | 70 | 2.0 | 5.0 | 0.00 | 0.00 | 0.00 | 91 | 1013.6 |
| 20260509085959 | 46 | 78 | 2.0 | 5.0 | 0.00 | 0.00 | 0.00 | 91 | 1013.7 |
| 20260509085457 | 46 | 74 | 2.0 | 4.0 | 0.00 | 0.00 | 0.00 | 91 | 1013.6 |
| 20260509084957 | 46 | 70 | 1.0 | 4.0 | 0.00 | 0.00 | 0.00 | 91 | 1013.7 |
| 20260509084458 | 46 | 78 | 4.0 | 4.0 | 0.00 | 0.00 | 0.00 | 91 | 1013.6 |
| 20260509083958 | 46 | 67 | 3.0 | 4.0 | 0.00 | 0.00 | 0.00 | 90 | 1013.6 |
| 20260509083457 | 46 | 76 | 3.0 | 4.0 | 0.00 | 0.00 | 0.00 | 90 | 1013.6 |
| 20260509082957 | 46 | 76 | 3.0 | 4.0 | 0.00 | 0.00 | 0.00 | 89 | 1013.7 |
| 20260509082458 | 46 | 69 | 2.0 | 3.0 | 0.00 | 0.00 | 0.00 | 89 | 1013.6 |
| 20260509081957 | 47 | 69 | 3.0 | 3.0 | 0.00 | 0.00 | 0.00 | 88 | 1013.7 |
| 20260509081457 | 47 | 69 | 3.0 | 3.0 | 0.00 | 0.00 | 0.00 | 87 | 1013.7 |
| 20260509080958 | 47 | 69 | 2.0 | 2.0 | 0.00 | 0.00 | 0.00 | 86 | 1013.7 |
| 20260509080457 | 48 | 67 | 0.0 | 0.0 | 0.00 | 0.00 | 0.00 | 84 | 1013.7 |
| 20260509075958 | 48 | 67 | 0.0 | 0.0 | 0.00 | 0.00 | 0.00 | 84 | 1013.7 |
| 20260509075457 | 48 | 67 | 0.0 | 1.0 | 0.00 | 0.00 | 0.00 | 84 | 1013.6 |
| 20260509074958 | 48 | 67 | 1.0 | 1.0 | 0.00 | 0.00 | 0.00 | 82 | 1013.5 |
| 20260509074458 | 48 | 67 | 1.0 | 3.0 | 0.00 | 0.00 | 0.00 | 81 | 1013.5 |
| 20260509073958 | 49 | 67 | 0.0 | 3.0 | 0.00 | 0.00 | 0.00 | 80 | 1013.4 |
| 20260509072958 | 49 | 67 | 1.0 | 3.0 | 0.00 | 0.00 | 0.00 | 79 | 1013.3 |
| 20260509072457 | 49 | 67 | 2.0 | 3.0 | 0.00 | 0.00 | 0.00 | 79 | 1013.2 |
| 20260509071958 | 49 | 67 | 2.0 | 3.0 | 0.00 | 0.00 | 0.00 | 79 | 1013.2 |
| 20260509071457 | 49 | 67 | 2.0 | 4.0 | 0.00 | 0.00 | 0.00 | 79 | 1013.2 |
| 20260509070958 | 49 | 69 | 3.0 | 4.0 | 0.00 | 0.00 | 0.00 | 79 | 1013.2 |
| 20260509070457 | 49 | 71 | 3.0 | 4.0 | 0.00 | 0.00 | 0.00 | 79 | 1013.2 |
| 20260509065958 | 49 | 69 | 2.0 | 4.0 | 0.00 | 0.00 | 0.00 | 79 | 1013.2 |
| 20260509064957 | 49 | 246 | 3.0 | 3.0 | 0.00 | 0.00 | 0.00 | 80 | 1013.3 |
| 20260509064457 | 49 | 246 | 1.0 | 3.0 | 0.00 | 0.00 | 0.00 | 80 | 1013.4 |
| 20260509063456 | 49 | 246 | 1.0 | 2.0 | 0.00 | 0.00 | 0.00 | 80 | 1013.5 |
| 20260509062456 | 49 | 243 | 1.0 | 3.0 | 0.00 | 0.00 | 0.00 | 80 | 1013.7 |
| 20260509061957 | 49 | 243 | 2.0 | 3.0 | 0.00 | 0.00 | 0.00 | 81 | 1013.7 |
| 20260509061457 | 49 | 243 | 0.0 | 0.0 | 0.00 | 0.00 | 0.00 | 81 | 1013.8 |
| 20260509060956 | 49 | 243 | 0.0 | 0.0 | 0.00 | 0.00 | 0.00 | 81 | 1014.0 |
| 20260509060457 | 49 | 243 | 0.0 | 0.0 | 0.00 | 0.00 | 0.00 | 81 | 1014.0 |
| 20260509055959 | 49 | 243 | 0.0 | 0.0 | 0.00 | 0.00 | 0.00 | 82 | 1013.9 |
| 20260509055458 | 49 | 243 | 0.0 | 0.0 | 0.00 | 0.00 | 0.00 | 82 | 1013.9 |
| 20260509054458 | 49 | 243 | 0.0 | 0.0 | 0.00 | 0.00 | 0.00 | 82 | 1013.9 |
| 20260509053958 | 49 | 243 | 0.0 | 0.0 | 0.00 | 0.00 | 0.00 | 82 | 1013.9 |
| 20260509052957 | 49 | 243 | 0.0 | 0.0 | 0.00 | 0.00 | 0.00 | 82 | 1013.9 |
| 20260509052457 | 49 | 243 | 0.0 | 0.0 | 0.00 | 0.00 | 0.00 | 82 | 1013.9 |
| 20260509051957 | 49 | 243 | 0.0 | 0.0 | 0.00 | 0.00 | 0.00 | 82 | 1013.8 |
| 20260509051457 | 49 | 243 | 0.0 | 0.0 | 0.00 | 0.00 | 0.00 | 82 | 1013.9 |
| 20260509050958 | 49 | 243 | 0.0 | 0.0 | 0.00 | 0.00 | 0.00 | 82 | 1013.9 |
| 20260509050458 | 49 | 243 | 0.0 | 0.0 | 0.00 | 0.00 | 0.00 | 83 | 1014.0 |
| 20260509045957 | 49 | 243 | 0.0 | 0.0 | 0.00 | 0.00 | 0.00 | 83 | 1014.0 |
| 20260509045456 | 49 | 243 | 0.0 | 2.0 | 0.00 | 0.00 | 0.00 | 82 | 1013.9 |
| 20260509044956 | 49 | 243 | 1.0 | 2.0 | 0.00 | 0.00 | 0.00 | 82 | 1014.0 |
| 20260509044457 | 49 | 243 | 1.0 | 2.0 | 0.00 | 0.00 | 0.00 | 82 | 1014.0 |
| 20260509043956 | 49 | 243 | 1.0 | 2.0 | 0.00 | 0.00 | 0.00 | 82 | 1014.0 |
| 20260509043456 | 49 | 243 | 2.0 | 2.0 | 0.00 | 0.00 | 0.00 | 82 | 1014.0 |
| 20260509042458 | 49 | 243 | 2.0 | 4.0 | 0.00 | 0.00 | 0.00 | 81 | 1014.0 |
| 20260509041958 | 49 | 243 | 2.0 | 4.0 | 0.00 | 0.00 | 0.00 | 80 | 1014.2 |
| 20260509041458 | 49 | 240 | 3.0 | 4.0 | 0.00 | 0.00 | 0.00 | 80 | 1014.1 |
| 20260509040458 | 49 | 76 | 1.0 | 3.0 | 0.00 | 0.00 | 0.00 | 78 | 1014.2 |
| 20260509035959 | 49 | 74 | 1.0 | 1.0 | 0.00 | 0.00 | 0.00 | 76 | 1014.1 |
| 20260509035458 | 49 | 74 | 1.0 | 1.0 | 0.00 | 0.00 | 0.00 | 75 | 1014.1 |
| 20260509034958 | 49 | 74 | 0.0 | 0.0 | 0.00 | 0.00 | 0.00 | 73 | 1014.0 |
| 20260509033958 | 49 | 74 | 0.0 | 0.0 | 0.00 | 0.00 | 0.00 | 71 | 1014.0 |
| 20260509033458 | 49 | 74 | 0.0 | 2.0 | 0.00 | 0.00 | 0.00 | 70 | 1014.0 |
| 20260509032958 | 49 | 74 | 0.0 | 2.0 | 0.00 | 0.00 | 0.00 | 69 | 1013.9 |
| 20260509032458 | 49 | 74 | 0.0 | 2.0 | 0.00 | 0.00 | 0.00 | 68 | 1013.8 |
| 20260509031958 | 49 | 74 | 1.0 | 2.0 | 0.00 | 0.00 | 0.00 | 67 | 1013.8 |
| 20260509031458 | 49 | 74 | 1.0 | 2.0 | 0.00 | 0.00 | 0.00 | 67 | 1013.7 |
| 20260509030958 | 50 | 74 | 1.0 | 2.0 | 0.00 | 0.00 | 0.00 | 68 | 1013.7 |
| 20260509030458 | 50 | 74 | 1.0 | 2.0 | 0.00 | 0.00 | 0.00 | 64 | 1013.8 |
| 20260509030003 | 51 | 74 | 1.0 | 2.0 | 0.00 | 0.00 | 0.00 | 65 | 1013.7 |
| 20260509024959 | 51 | 74 | 1.0 | 2.0 | 0.00 | 0.00 | 0.00 | 60 | 1013.7 |
| 20260509024459 | 51 | 74 | 1.0 | 3.0 | 0.00 | 0.00 | 0.00 | 60 | 1013.5 |
| 20260509023959 | 51 | 74 | 3.0 | 3.0 | 0.00 | 0.00 | 0.00 | 61 | 1013.5 |
| 20260509023459 | 51 | 261 | 0.0 | 0.0 | 0.00 | 0.00 | 0.00 | 59 | 1013.5 |
| 20260509023000 | 51 | 261 | 0.0 | 0.0 | 0.00 | 0.00 | 0.00 | 60 | 1013.6 |
| 20260509022459 | 51 | 261 | 0.0 | 1.0 | 0.00 | 0.00 | 0.00 | 61 | 1013.6 |
| 20260509021959 | 51 | 261 | 1.0 | 1.0 | 0.00 | 0.00 | 0.00 | 63 | 1013.5 |
| 20260509021459 | 50 | 261 | 1.0 | 1.0 | 0.00 | 0.00 | 0.00 | 63 | 1013.6 |
| 20260509020959 | 50 | 261 | 0.0 | 2.0 | 0.00 | 0.00 | 0.00 | 62 | 1013.6 |
| 20260509020459 | 50 | 261 | 0.0 | 2.0 | 0.00 | 0.00 | 0.00 | 60 | 1013.5 |
| 20260509020002 | 50 | 261 | 1.0 | 1.0 | 0.00 | 0.00 | 0.00 | 59 | 1013.5 |
| 20260509015459 | 51 | 261 | 0.0 | 0.0 | 0.00 | 0.00 | 0.00 | 60 | 1013.5 |
| 20260509014959 | 51 | 261 | 0.0 | 0.0 | 0.00 | 0.00 | 0.00 | 58 | 1013.5 |
| 20260509014500 | 50 | 261 | 0.0 | 0.0 | 0.00 | 0.00 | 0.00 | 59 | 1013.4 |
| 20260509014000 | 50 | 261 | 0.0 | 0.0 | 0.00 | 0.00 | 0.00 | 59 | 1013.4 |
| 20260509013459 | 50 | 261 | 0.0 | 0.0 | 0.00 | 0.00 | 0.00 | 61 | 1013.3 |
| 20260509013000 | 50 | 261 | 0.0 | 0.0 | 0.00 | 0.00 | 0.00 | 64 | 1013.3 |
| 20260509012459 | 50 | 261 | 0.0 | 0.0 | 0.00 | 0.00 | 0.00 | 64 | 1013.3 |
| 20260509011959 | 50 | 261 | 0.0 | 0.0 | 0.00 | 0.00 | 0.00 | 63 | 1013.2 |
| 20260509011459 | 50 | 261 | 0.0 | 0.0 | 0.00 | 0.00 | 0.00 | 63 | 1013.2 |
| 20260509010959 | 50 | 261 | 0.0 | 0.0 | 0.00 | 0.00 | 0.00 | 63 | 1013.1 |
| 20260509010002 | 50 | 261 | 0.0 | 0.0 | 0.00 | 0.00 | 0.00 | 61 | 1012.9 |
| 20260509005459 | 50 | 261 | 0.0 | 0.0 | 0.00 | 0.00 | 0.00 | 61 | 1012.7 |
| 20260509004959 | 51 | 261 | 0.0 | 0.0 | 0.00 | 0.00 | 0.00 | 62 | 1012.7 |
| 20260509004459 | 51 | 261 | 0.0 | 0.0 | 0.00 | 0.00 | 0.00 | 61 | 1012.6 |
| 20260509003959 | 51 | 261 | 0.0 | 0.0 | 0.00 | 0.00 | 0.00 | 61 | 1012.4 |
| 20260509003459 | 51 | 261 | 0.0 | 0.0 | 0.00 | 0.00 | 0.00 | 62 | 1012.3 |
| 20260509002959 | 51 | 261 | 0.0 | 0.0 | 0.00 | 0.00 | 0.00 | 62 | 1012.2 |
| 20260509002501 | 51 | 261 | 0.0 | 0.0 | 0.00 | 0.00 | 0.00 | 63 | 1012.2 |
| 20260509001959 | 51 | 261 | 0.0 | 0.0 | 0.00 | 0.00 | 0.00 | 63 | 1012.1 |
| 20260509001459 | 51 | 261 | 0.0 | 0.0 | 0.00 | 0.00 | 0.00 | 64 | 1012.2 |
| 20260509000959 | 51 | 261 | 0.0 | 0.0 | 0.00 | 0.00 | 0.00 | 63 | 1012.3 |
| 20260509000459 | 51 | 261 | 0.0 | 0.0 | 0.00 | 0.00 | 0.00 | 64 | 1012.2 |
| 20260508234958 | 51 | 261 | 0.0 | 1.0 | 0.00 | 0.00 | 0.00 | 66 | 1012.0 |
| 20260508234458 | 51 | 261 | 0.0 | 3.0 | 0.00 | 0.00 | 0.00 | 66 | 1011.9 |
| 20260508233958 | 52 | 261 | 0.0 | 3.0 | 0.00 | 0.00 | 0.00 | 65 | 1011.8 |
| 20260508233457 | 52 | 261 | 2.0 | 3.0 | 0.00 | 0.00 | 0.00 | 65 | 1011.8 |
| 20260508232958 | 52 | 261 | 2.0 | 3.0 | 0.00 | 0.00 | 0.00 | 65 | 1011.7 |
| 20260508232458 | 53 | 261 | 1.0 | 3.0 | 0.00 | 0.00 | 0.00 | 64 | 1011.6 |
| 20260508231958 | 53 | 261 | 2.0 | 4.0 | 0.00 | 0.00 | 0.00 | 64 | 1011.5 |
| 20260508231458 | 53 | 261 | 2.0 | 4.0 | 0.00 | 0.00 | 0.00 | 63 | 1011.4 |
| 20260508230958 | 54 | 252 | 2.0 | 4.0 | 0.00 | 0.00 | 0.00 | 62 | 1011.4 |
| 20260508230458 | 54 | 257 | 2.0 | 4.0 | 0.00 | 0.00 | 0.00 | 62 | 1011.4 |
| 20260508225958 | 54 | 269 | 3.0 | 7.0 | 0.00 | 0.00 | 0.00 | 63 | 1011.4 |
| 20260508225458 | 54 | 247 | 3.0 | 7.0 | 0.00 | 0.00 | 0.00 | 60 | 1011.3 |
| 20260508224958 | 54 | 261 | 3.0 | 7.0 | 0.00 | 0.00 | 0.00 | 62 | 1011.2 |
| 20260508224458 | 54 | 254 | 4.0 | 7.0 | 0.00 | 0.00 | 0.00 | 63 | 1011.1 |
| 20260508223958 | 54 | 254 | 2.0 | 4.0 | 0.00 | 0.00 | 0.00 | 63 | 1011.0 |
| 20260508222958 | 55 | 257 | 2.0 | 4.0 | 0.00 | 0.00 | 0.00 | 62 | 1011.1 |
| 20260508222459 | 55 | 252 | 0.0 | 4.0 | 0.00 | 0.00 | 0.00 | 63 | 1011.1 |
| 20260508221458 | 55 | 246 | 2.0 | 7.0 | 0.00 | 0.00 | 0.00 | 62 | 1011.2 |